sensor_id;sensor_type;location;lat;lon;timestamp;temperature;humidity
20833;DHT22;56075;51.264;7.150;2023-11-19T00:00:22;10.20;99.90
20833;DHT22;56075;51.264;7.150;2023-11-19T00:02:54;10.10;99.90
20833;DHT22;56075;51.264;7.150;2023-11-19T00:05:25;10.40;99.90
20833;DHT22;56075;51.264;7.150;2023-11-19T00:07:58;10.50;99.90
20833;DHT22;56075;51.264;7.150;2023-11-19T00:10:29;10.50;99.90
20833;DHT22;56075;51.264;7.150;2023-11-19T00:13:01;10.50;99.90
20833;DHT22;56075;51.264;7.150;2023-11-19T00:15:34;10.60;99.90
20833;DHT22;56075;51.264;7.150;2023-11-19T00:18:05;10.70;99.90
20833;DHT22;56075;51.264;7.150;2023-11-19T00:20:36;10.60;99.90
20833;DHT22;56075;51.264;7.150;2023-11-19T00:23:07;10.60;99.90
20833;DHT22;56075;51.264;7.150;2023-11-19T00:25:38;10.80;99.90
20833;DHT22;56075;51.264;7.150;2023-11-19T00:28:10;10.80;99.90
20833;DHT22;56075;51.264;7.150;2023-11-19T00:30:41;10.80;99.90
20833;DHT22;56075;51.264;7.150;2023-11-19T00:33:12;10.80;99.90
20833;DHT22;56075;51.264;7.150;2023-11-19T00:35:43;10.80;99.90
20833;DHT22;56075;51.264;7.150;2023-11-19T00:38:15;10.90;99.90
20833;DHT22;56075;51.264;7.150;2023-11-19T00:43:17;11.00;99.90
20833;DHT22;56075;51.264;7.150;2023-11-19T00:45:50;11.10;99.90
20833;DHT22;56075;51.264;7.150;2023-11-19T00:48:21;10.70;99.90
20833;DHT22;56075;51.264;7.150;2023-11-19T00:50:53;11.10;99.90
20833;DHT22;56075;51.264;7.150;2023-11-19T00:53:24;11.10;99.90
20833;DHT22;56075;51.264;7.150;2023-11-19T00:58:28;11.10;99.90
20833;DHT22;56075;51.264;7.150;2023-11-19T01:00:59;11.30;99.90
20833;DHT22;56075;51.264;7.150;2023-11-19T01:03:30;11.20;99.90
20833;DHT22;56075;51.264;7.150;2023-11-19T01:06:04;11.20;99.90
20833;DHT22;56075;51.264;7.150;2023-11-19T01:08:35;11.00;99.90
20833;DHT22;56075;51.264;7.150;2023-11-19T01:11:07;11.20;99.90
20833;DHT22;56075;51.264;7.150;2023-11-19T01:13:40;11.30;99.90
20833;DHT22;56075;51.264;7.150;2023-11-19T01:16:11;11.60;99.90
20833;DHT22;56075;51.264;7.150;2023-11-19T01:18:44;11.40;99.90
20833;DHT22;56075;51.264;7.150;2023-11-19T01:21:15;11.40;99.90
20833;DHT22;56075;51.264;7.150;2023-11-19T01:23:47;11.50;99.90
20833;DHT22;56075;51.264;7.150;2023-11-19T01:26:18;11.40;99.90
20833;DHT22;56075;51.264;7.150;2023-11-19T01:28:50;11.50;99.90
20833;DHT22;56075;51.264;7.150;2023-11-19T01:31:23;11.40;99.90
20833;DHT22;56075;51.264;7.150;2023-11-19T01:33:55;11.50;99.90
20833;DHT22;56075;51.264;7.150;2023-11-19T01:36:26;11.30;99.90
20833;DHT22;56075;51.264;7.150;2023-11-19T01:38:57;11.40;99.90
20833;DHT22;56075;51.264;7.150;2023-11-19T01:41:28;11.50;99.90
20833;DHT22;56075;51.264;7.150;2023-11-19T01:44:00;11.40;99.90
20833;DHT22;56075;51.264;7.150;2023-11-19T01:46:31;11.70;99.90
20833;DHT22;56075;51.264;7.150;2023-11-19T01:49:05;11.60;99.90
20833;DHT22;56075;51.264;7.150;2023-11-19T01:51:38;11.60;99.90
20833;DHT22;56075;51.264;7.150;2023-11-19T01:54:10;11.60;99.90
20833;DHT22;56075;51.264;7.150;2023-11-19T01:56:42;12.30;99.90
20833;DHT22;56075;51.264;7.150;2023-11-19T01:59:14;11.80;99.90
20833;DHT22;56075;51.264;7.150;2023-11-19T02:01:45;11.60;99.90
20833;DHT22;56075;51.264;7.150;2023-11-19T02:04:17;11.80;99.90
20833;DHT22;56075;51.264;7.150;2023-11-19T02:06:48;12.40;99.90
20833;DHT22;56075;51.264;7.150;2023-11-19T02:09:23;11.90;99.90
20833;DHT22;56075;51.264;7.150;2023-11-19T02:11:55;11.90;99.90
20833;DHT22;56075;51.264;7.150;2023-11-19T02:14:27;12.00;99.90
20833;DHT22;56075;51.264;7.150;2023-11-19T02:16:59;11.90;99.90
20833;DHT22;56075;51.264;7.150;2023-11-19T02:19:30;12.10;99.90
20833;DHT22;56075;51.264;7.150;2023-11-19T02:22:02;12.00;99.90
20833;DHT22;56075;51.264;7.150;2023-11-19T02:24:33;12.00;99.90
20833;DHT22;56075;51.264;7.150;2023-11-19T02:27:13;12.20;99.90
20833;DHT22;56075;51.264;7.150;2023-11-19T02:29:46;12.10;99.90
20833;DHT22;56075;51.264;7.150;2023-11-19T02:32:19;12.20;99.90
20833;DHT22;56075;51.264;7.150;2023-11-19T02:34:51;12.20;99.90
20833;DHT22;56075;51.264;7.150;2023-11-19T02:37:24;12.10;99.90
20833;DHT22;56075;51.264;7.150;2023-11-19T02:39:55;12.40;99.90
20833;DHT22;56075;51.264;7.150;2023-11-19T02:42:26;13.40;99.90
20833;DHT22;56075;51.264;7.150;2023-11-19T02:44:59;12.20;99.90
20833;DHT22;56075;51.264;7.150;2023-11-19T02:47:30;12.50;99.90
20833;DHT22;56075;51.264;7.150;2023-11-19T02:50:01;12.20;99.90
20833;DHT22;56075;51.264;7.150;2023-11-19T02:52:33;12.30;99.90
20833;DHT22;56075;51.264;7.150;2023-11-19T02:55:09;12.30;99.90
20833;DHT22;56075;51.264;7.150;2023-11-19T02:57:44;12.30;99.90
20833;DHT22;56075;51.264;7.150;2023-11-19T03:00:21;12.40;99.90
20833;DHT22;56075;51.264;7.150;2023-11-19T03:03:03;12.50;99.90
20833;DHT22;56075;51.264;7.150;2023-11-19T03:05:49;12.40;99.90
20833;DHT22;56075;51.264;7.150;2023-11-19T03:08:20;12.40;99.90
20833;DHT22;56075;51.264;7.150;2023-11-19T03:10:55;12.30;99.90
20833;DHT22;56075;51.264;7.150;2023-11-19T03:13:26;12.50;99.90
20833;DHT22;56075;51.264;7.150;2023-11-19T03:15:58;12.50;99.90
20833;DHT22;56075;51.264;7.150;2023-11-19T03:18:29;12.50;99.90
20833;DHT22;56075;51.264;7.150;2023-11-19T03:21:01;12.50;99.90
20833;DHT22;56075;51.264;7.150;2023-11-19T03:23:32;12.60;99.90
20833;DHT22;56075;51.264;7.150;2023-11-19T03:26:03;12.50;99.90
20833;DHT22;56075;51.264;7.150;2023-11-19T03:28:36;12.50;99.90
20833;DHT22;56075;51.264;7.150;2023-11-19T03:31:11;12.40;99.90
20833;DHT22;56075;51.264;7.150;2023-11-19T03:33:42;12.70;99.90
20833;DHT22;56075;51.264;7.150;2023-11-19T03:36:14;12.60;99.90
20833;DHT22;56075;51.264;7.150;2023-11-19T03:38:45;12.60;99.90
20833;DHT22;56075;51.264;7.150;2023-11-19T03:41:16;12.60;99.90
20833;DHT22;56075;51.264;7.150;2023-11-19T03:43:48;12.70;99.90
20833;DHT22;56075;51.264;7.150;2023-11-19T03:46:20;13.50;99.90
20833;DHT22;56075;51.264;7.150;2023-11-19T03:48:51;12.70;99.90
20833;DHT22;56075;51.264;7.150;2023-11-19T03:51:23;12.70;99.90
20833;DHT22;56075;51.264;7.150;2023-11-19T03:53:54;12.70;99.90
20833;DHT22;56075;51.264;7.150;2023-11-19T03:56:25;13.00;99.90
20833;DHT22;56075;51.264;7.150;2023-11-19T03:58:56;12.70;99.90
20833;DHT22;56075;51.264;7.150;2023-11-19T04:01:27;12.70;99.90
20833;DHT22;56075;51.264;7.150;2023-11-19T04:03:58;12.80;99.90
20833;DHT22;56075;51.264;7.150;2023-11-19T04:06:30;12.80;99.90
20833;DHT22;56075;51.264;7.150;2023-11-19T04:09:01;12.70;99.90
20833;DHT22;56075;51.264;7.150;2023-11-19T04:11:33;12.70;99.90
20833;DHT22;56075;51.264;7.150;2023-11-19T04:14:04;12.80;99.90
20833;DHT22;56075;51.264;7.150;2023-11-19T04:16:35;12.60;99.90
20833;DHT22;56075;51.264;7.150;2023-11-19T04:19:06;12.70;99.90
20833;DHT22;56075;51.264;7.150;2023-11-19T04:21:41;12.60;99.90
20833;DHT22;56075;51.264;7.150;2023-11-19T04:24:13;12.70;99.90
20833;DHT22;56075;51.264;7.150;2023-11-19T04:26:45;12.70;99.90
20833;DHT22;56075;51.264;7.150;2023-11-19T04:29:17;12.70;99.90
20833;DHT22;56075;51.264;7.150;2023-11-19T04:31:49;12.70;99.90
20833;DHT22;56075;51.264;7.150;2023-11-19T04:34:20;12.60;99.90
20833;DHT22;56075;51.264;7.150;2023-11-19T04:36:51;12.70;99.90
20833;DHT22;56075;51.264;7.150;2023-11-19T04:39:23;12.70;99.90
20833;DHT22;56075;51.264;7.150;2023-11-19T04:41:54;12.70;99.90
20833;DHT22;56075;51.264;7.150;2023-11-19T04:44:26;13.20;99.90
20833;DHT22;56075;51.264;7.150;2023-11-19T04:46:57;12.50;99.90
20833;DHT22;56075;51.264;7.150;2023-11-19T04:49:28;12.80;99.90
20833;DHT22;56075;51.264;7.150;2023-11-19T04:51:59;12.70;99.90
20833;DHT22;56075;51.264;7.150;2023-11-19T04:54:31;12.60;99.90
20833;DHT22;56075;51.264;7.150;2023-11-19T04:57:02;12.60;99.90
20833;DHT22;56075;51.264;7.150;2023-11-19T04:59:34;12.50;99.90
20833;DHT22;56075;51.264;7.150;2023-11-19T05:02:05;13.10;99.90
20833;DHT22;56075;51.264;7.150;2023-11-19T05:04:36;12.70;99.90
20833;DHT22;56075;51.264;7.150;2023-11-19T05:07:11;12.70;99.90
20833;DHT22;56075;51.264;7.150;2023-11-19T05:09:42;12.70;99.90
20833;DHT22;56075;51.264;7.150;2023-11-19T05:12:14;12.60;99.90
20833;DHT22;56075;51.264;7.150;2023-11-19T05:14:45;12.60;99.90
20833;DHT22;56075;51.264;7.150;2023-11-19T05:17:20;12.60;99.90
20833;DHT22;56075;51.264;7.150;2023-11-19T05:19:51;12.60;99.90
20833;DHT22;56075;51.264;7.150;2023-11-19T05:22:22;12.60;99.90
20833;DHT22;56075;51.264;7.150;2023-11-19T05:24:54;12.60;99.90
20833;DHT22;56075;51.264;7.150;2023-11-19T05:27:26;12.60;99.90
20833;DHT22;56075;51.264;7.150;2023-11-19T05:29:58;12.60;99.90
20833;DHT22;56075;51.264;7.150;2023-11-19T05:32:29;12.70;99.90
20833;DHT22;56075;51.264;7.150;2023-11-19T05:35:00;12.70;99.90
20833;DHT22;56075;51.264;7.150;2023-11-19T05:37:31;12.40;99.90
20833;DHT22;56075;51.264;7.150;2023-11-19T05:40:03;12.50;99.90
20833;DHT22;56075;51.264;7.150;2023-11-19T05:42:37;12.40;99.90
20833;DHT22;56075;51.264;7.150;2023-11-19T05:45:11;12.30;99.90
20833;DHT22;56075;51.264;7.150;2023-11-19T05:47:43;12.50;99.90
20833;DHT22;56075;51.264;7.150;2023-11-19T05:50:14;12.50;99.90
20833;DHT22;56075;51.264;7.150;2023-11-19T05:52:46;13.50;99.90
20833;DHT22;56075;51.264;7.150;2023-11-19T05:55:17;12.40;99.90
20833;DHT22;56075;51.264;7.150;2023-11-19T05:57:48;12.50;99.90
20833;DHT22;56075;51.264;7.150;2023-11-19T06:00:20;12.50;99.90
20833;DHT22;56075;51.264;7.150;2023-11-19T06:02:51;12.90;99.90
20833;DHT22;56075;51.264;7.150;2023-11-19T06:05:22;12.40;99.90
20833;DHT22;56075;51.264;7.150;2023-11-19T06:07:53;12.20;99.90
20833;DHT22;56075;51.264;7.150;2023-11-19T06:10:25;12.60;99.90
20833;DHT22;56075;51.264;7.150;2023-11-19T06:13:02;12.50;99.90
20833;DHT22;56075;51.264;7.150;2023-11-19T06:15:36;12.40;99.90
20833;DHT22;56075;51.264;7.150;2023-11-19T06:18:07;12.50;99.90
20833;DHT22;56075;51.264;7.150;2023-11-19T06:20:40;12.40;99.90
20833;DHT22;56075;51.264;7.150;2023-11-19T06:23:11;12.50;99.90
20833;DHT22;56075;51.264;7.150;2023-11-19T06:25:44;12.50;99.90
20833;DHT22;56075;51.264;7.150;2023-11-19T06:28:15;12.40;99.90
20833;DHT22;56075;51.264;7.150;2023-11-19T06:30:46;12.30;99.90
20833;DHT22;56075;51.264;7.150;2023-11-19T06:33:17;12.40;99.90
20833;DHT22;56075;51.264;7.150;2023-11-19T06:35:48;12.30;99.90
20833;DHT22;56075;51.264;7.150;2023-11-19T06:38:20;12.20;99.90
20833;DHT22;56075;51.264;7.150;2023-11-19T06:40:51;12.20;99.90
20833;DHT22;56075;51.264;7.150;2023-11-19T06:43:23;12.30;99.90
20833;DHT22;56075;51.264;7.150;2023-11-19T06:45:54;12.20;99.90
20833;DHT22;56075;51.264;7.150;2023-11-19T06:48:25;12.20;99.90
20833;DHT22;56075;51.264;7.150;2023-11-19T06:50:56;12.20;99.90
20833;DHT22;56075;51.264;7.150;2023-11-19T06:53:28;13.00;99.90
20833;DHT22;56075;51.264;7.150;2023-11-19T06:55:59;12.20;99.90
20833;DHT22;56075;51.264;7.150;2023-11-19T06:58:32;12.10;99.90
20833;DHT22;56075;51.264;7.150;2023-11-19T07:01:06;12.20;99.90
20833;DHT22;56075;51.264;7.150;2023-11-19T07:03:39;13.40;99.90
20833;DHT22;56075;51.264;7.150;2023-11-19T07:06:10;12.00;99.90
20833;DHT22;56075;51.264;7.150;2023-11-19T07:08:42;11.90;99.90
20833;DHT22;56075;51.264;7.150;2023-11-19T07:11:16;11.90;99.90
20833;DHT22;56075;51.264;7.150;2023-11-19T07:13:48;12.10;99.90
20833;DHT22;56075;51.264;7.150;2023-11-19T07:16:19;11.90;99.90
20833;DHT22;56075;51.264;7.150;2023-11-19T07:18:52;12.00;99.90
20833;DHT22;56075;51.264;7.150;2023-11-19T07:21:23;11.90;99.90
20833;DHT22;56075;51.264;7.150;2023-11-19T07:23:55;11.80;99.90
20833;DHT22;56075;51.264;7.150;2023-11-19T07:26:27;11.70;99.90
20833;DHT22;56075;51.264;7.150;2023-11-19T07:28:58;11.70;99.90
20833;DHT22;56075;51.264;7.150;2023-11-19T07:31:29;11.60;99.90
20833;DHT22;56075;51.264;7.150;2023-11-19T07:34:00;11.70;99.90
20833;DHT22;56075;51.264;7.150;2023-11-19T07:36:32;11.70;99.90
20833;DHT22;56075;51.264;7.150;2023-11-19T07:39:04;11.60;99.90
20833;DHT22;56075;51.264;7.150;2023-11-19T07:41:36;11.60;99.90
20833;DHT22;56075;51.264;7.150;2023-11-19T07:44:10;11.80;99.90
20833;DHT22;56075;51.264;7.150;2023-11-19T07:46:42;11.60;99.90
20833;DHT22;56075;51.264;7.150;2023-11-19T07:49:14;11.50;99.90
20833;DHT22;56075;51.264;7.150;2023-11-19T07:51:45;11.70;99.90
20833;DHT22;56075;51.264;7.150;2023-11-19T07:54:16;11.40;99.90
20833;DHT22;56075;51.264;7.150;2023-11-19T07:56:47;11.50;99.90
20833;DHT22;56075;51.264;7.150;2023-11-19T07:59:21;11.50;99.90
20833;DHT22;56075;51.264;7.150;2023-11-19T08:01:52;11.60;99.90
20833;DHT22;56075;51.264;7.150;2023-11-19T08:04:23;11.40;99.90
20833;DHT22;56075;51.264;7.150;2023-11-19T08:06:55;11.50;99.90
20833;DHT22;56075;51.264;7.150;2023-11-19T08:09:26;11.50;99.90
20833;DHT22;56075;51.264;7.150;2023-11-19T08:11:57;11.60;99.90
20833;DHT22;56075;51.264;7.150;2023-11-19T08:14:29;11.50;99.90
20833;DHT22;56075;51.264;7.150;2023-11-19T08:17:00;11.50;99.90
20833;DHT22;56075;51.264;7.150;2023-11-19T08:19:32;11.60;99.90
20833;DHT22;56075;51.264;7.150;2023-11-19T08:22:03;11.40;99.90
20833;DHT22;56075;51.264;7.150;2023-11-19T08:24:35;11.80;99.90
20833;DHT22;56075;51.264;7.150;2023-11-19T08:27:06;11.80;99.90
20833;DHT22;56075;51.264;7.150;2023-11-19T08:29:38;11.70;99.90
20833;DHT22;56075;51.264;7.150;2023-11-19T08:32:09;11.80;99.90
20833;DHT22;56075;51.264;7.150;2023-11-19T08:34:42;11.70;99.90
20833;DHT22;56075;51.264;7.150;2023-11-19T08:37:13;12.00;99.90
20833;DHT22;56075;51.264;7.150;2023-11-19T08:39:44;12.00;99.90
20833;DHT22;56075;51.264;7.150;2023-11-19T08:42:16;12.10;99.90
20833;DHT22;56075;51.264;7.150;2023-11-19T08:44:51;12.00;99.90
20833;DHT22;56075;51.264;7.150;2023-11-19T08:47:25;12.20;99.90
20833;DHT22;56075;51.264;7.150;2023-11-19T08:49:58;12.30;99.90
20833;DHT22;56075;51.264;7.150;2023-11-19T08:52:30;12.10;99.90
20833;DHT22;56075;51.264;7.150;2023-11-19T08:55:01;12.30;99.90
20833;DHT22;56075;51.264;7.150;2023-11-19T08:57:33;12.20;99.90
20833;DHT22;56075;51.264;7.150;2023-11-19T09:00:05;12.30;99.90
20833;DHT22;56075;51.264;7.150;2023-11-19T09:02:40;12.20;99.90
20833;DHT22;56075;51.264;7.150;2023-11-19T09:05:11;12.30;99.90
20833;DHT22;56075;51.264;7.150;2023-11-19T09:07:43;12.30;99.90
20833;DHT22;56075;51.264;7.150;2023-11-19T09:10:15;12.40;99.90
20833;DHT22;56075;51.264;7.150;2023-11-19T09:12:46;12.50;99.90
20833;DHT22;56075;51.264;7.150;2023-11-19T09:15:18;12.70;99.90
20833;DHT22;56075;51.264;7.150;2023-11-19T09:17:49;14.30;99.90
20833;DHT22;56075;51.264;7.150;2023-11-19T09:20:21;13.60;99.90
20833;DHT22;56075;51.264;7.150;2023-11-19T09:22:52;12.50;99.90
20833;DHT22;56075;51.264;7.150;2023-11-19T09:25:23;12.60;99.90
20833;DHT22;56075;51.264;7.150;2023-11-19T09:27:55;12.60;99.90
20833;DHT22;56075;51.264;7.150;2023-11-19T09:30:26;12.00;99.90
20833;DHT22;56075;51.264;7.150;2023-11-19T09:32:57;12.50;99.90
20833;DHT22;56075;51.264;7.150;2023-11-19T09:35:28;12.80;99.90
20833;DHT22;56075;51.264;7.150;2023-11-19T09:38:00;12.50;99.90
20833;DHT22;56075;51.264;7.150;2023-11-19T09:40:32;12.70;99.90
20833;DHT22;56075;51.264;7.150;2023-11-19T09:43:03;12.70;99.90
20833;DHT22;56075;51.264;7.150;2023-11-19T09:45:52;12.80;99.90
20833;DHT22;56075;51.264;7.150;2023-11-19T09:48:25;12.70;99.90
20833;DHT22;56075;51.264;7.150;2023-11-19T09:50:56;13.40;99.90
20833;DHT22;56075;51.264;7.150;2023-11-19T09:53:29;12.80;99.90
20833;DHT22;56075;51.264;7.150;2023-11-19T09:56:01;14.40;99.90
20833;DHT22;56075;51.264;7.150;2023-11-19T09:58:34;13.20;99.90
20833;DHT22;56075;51.264;7.150;2023-11-19T10:01:05;12.80;99.90
20833;DHT22;56075;51.264;7.150;2023-11-19T10:03:41;12.80;99.90
20833;DHT22;56075;51.264;7.150;2023-11-19T10:06:14;13.40;99.90
20833;DHT22;56075;51.264;7.150;2023-11-19T10:08:46;13.30;99.90
20833;DHT22;56075;51.264;7.150;2023-11-19T10:11:17;12.80;99.90
20833;DHT22;56075;51.264;7.150;2023-11-19T10:13:49;12.90;99.90
20833;DHT22;56075;51.264;7.150;2023-11-19T10:16:20;12.90;99.90
20833;DHT22;56075;51.264;7.150;2023-11-19T10:18:51;12.80;99.90
20833;DHT22;56075;51.264;7.150;2023-11-19T10:21:23;12.90;99.90
20833;DHT22;56075;51.264;7.150;2023-11-19T10:23:56;12.90;99.90
20833;DHT22;56075;51.264;7.150;2023-11-19T10:26:30;12.80;99.90
20833;DHT22;56075;51.264;7.150;2023-11-19T10:29:01;13.10;99.90
20833;DHT22;56075;51.264;7.150;2023-11-19T10:31:32;12.80;99.90
20833;DHT22;56075;51.264;7.150;2023-11-19T10:34:04;13.00;99.90
20833;DHT22;56075;51.264;7.150;2023-11-19T10:36:54;12.90;99.90
20833;DHT22;56075;51.264;7.150;2023-11-19T10:39:51;13.20;99.90
20833;DHT22;56075;51.264;7.150;2023-11-19T10:42:25;13.00;99.90
20833;DHT22;56075;51.264;7.150;2023-11-19T10:44:56;13.10;99.90
20833;DHT22;56075;51.264;7.150;2023-11-19T10:47:28;13.80;99.90
20833;DHT22;56075;51.264;7.150;2023-11-19T10:50:01;13.30;99.90
20833;DHT22;56075;51.264;7.150;2023-11-19T10:52:33;13.20;99.90
20833;DHT22;56075;51.264;7.150;2023-11-19T10:55:08;13.10;99.90
20833;DHT22;56075;51.264;7.150;2023-11-19T10:57:43;13.10;99.90
20833;DHT22;56075;51.264;7.150;2023-11-19T11:00:19;13.10;99.90
20833;DHT22;56075;51.264;7.150;2023-11-19T11:02:56;13.10;99.90
20833;DHT22;56075;51.264;7.150;2023-11-19T11:05:32;13.10;99.90
20833;DHT22;56075;51.264;7.150;2023-11-19T11:08:06;13.30;99.90
20833;DHT22;56075;51.264;7.150;2023-11-19T11:10:42;13.20;99.90
20833;DHT22;56075;51.264;7.150;2023-11-19T11:13:14;13.10;99.90
20833;DHT22;56075;51.264;7.150;2023-11-19T11:15:46;13.20;99.90
20833;DHT22;56075;51.264;7.150;2023-11-19T11:18:18;13.60;99.90
20833;DHT22;56075;51.264;7.150;2023-11-19T11:20:49;14.10;99.90
20833;DHT22;56075;51.264;7.150;2023-11-19T11:31:57;13.10;99.90
20833;DHT22;56075;51.264;7.150;2023-11-19T11:37:32;13.20;99.90
20833;DHT22;56075;51.264;7.150;2023-11-19T11:40:05;13.20;99.90
20833;DHT22;56075;51.264;7.150;2023-11-19T11:42:41;13.20;99.90
20833;DHT22;56075;51.264;7.150;2023-11-19T11:45:14;13.30;99.90
20833;DHT22;56075;51.264;7.150;2023-11-19T11:50:26;13.40;99.90
20833;DHT22;56075;51.264;7.150;2023-11-19T11:55:36;13.30;99.90
20833;DHT22;56075;51.264;7.150;2023-11-19T11:58:08;13.50;99.90
20833;DHT22;56075;51.264;7.150;2023-11-19T12:00:40;13.50;99.90
20833;DHT22;56075;51.264;7.150;2023-11-19T12:03:12;14.90;99.90
20833;DHT22;56075;51.264;7.150;2023-11-19T12:05:47;13.60;99.90
20833;DHT22;56075;51.264;7.150;2023-11-19T12:08:20;13.40;99.90
20833;DHT22;56075;51.264;7.150;2023-11-19T12:10:57;13.60;99.90
20833;DHT22;56075;51.264;7.150;2023-11-19T12:13:47;14.00;99.90
20833;DHT22;56075;51.264;7.150;2023-11-19T12:16:19;13.60;99.90
20833;DHT22;56075;51.264;7.150;2023-11-19T12:18:53;13.40;99.90
20833;DHT22;56075;51.264;7.150;2023-11-19T12:21:29;13.60;99.90
20833;DHT22;56075;51.264;7.150;2023-11-19T12:24:04;14.00;99.90
20833;DHT22;56075;51.264;7.150;2023-11-19T12:26:38;13.40;99.90
20833;DHT22;56075;51.264;7.150;2023-11-19T12:29:09;13.40;99.90
20833;DHT22;56075;51.264;7.150;2023-11-19T12:31:44;13.40;99.90
20833;DHT22;56075;51.264;7.150;2023-11-19T12:34:15;13.40;99.90
20833;DHT22;56075;51.264;7.150;2023-11-19T12:36:47;13.30;99.90
20833;DHT22;56075;51.264;7.150;2023-11-19T12:39:18;14.30;99.90
20833;DHT22;56075;51.264;7.150;2023-11-19T12:41:51;13.50;99.90
20833;DHT22;56075;51.264;7.150;2023-11-19T12:44:23;13.60;99.90
20833;DHT22;56075;51.264;7.150;2023-11-19T12:47:12;13.70;99.90
20833;DHT22;56075;51.264;7.150;2023-11-19T12:49:45;13.60;99.90
20833;DHT22;56075;51.264;7.150;2023-11-19T12:52:25;13.50;99.90
20833;DHT22;56075;51.264;7.150;2023-11-19T12:54:57;13.40;99.90
20833;DHT22;56075;51.264;7.150;2023-11-19T12:57:42;13.50;99.90
20833;DHT22;56075;51.264;7.150;2023-11-19T13:00:20;13.40;99.90
20833;DHT22;56075;51.264;7.150;2023-11-19T13:02:54;13.40;99.90
20833;DHT22;56075;51.264;7.150;2023-11-19T13:10:32;12.80;99.90
20833;DHT22;56075;51.264;7.150;2023-11-19T13:13:06;12.80;99.90
20833;DHT22;56075;51.264;7.150;2023-11-19T13:15:38;12.60;99.90
20833;DHT22;56075;51.264;7.150;2023-11-19T13:18:11;12.70;99.90
20833;DHT22;56075;51.264;7.150;2023-11-19T13:20:42;12.80;99.90
20833;DHT22;56075;51.264;7.150;2023-11-19T13:23:14;12.90;99.90
20833;DHT22;56075;51.264;7.150;2023-11-19T13:25:46;13.60;99.90
20833;DHT22;56075;51.264;7.150;2023-11-19T13:28:17;13.10;99.90
20833;DHT22;56075;51.264;7.150;2023-11-19T13:30:49;13.00;99.90
20833;DHT22;56075;51.264;7.150;2023-11-19T13:33:21;12.90;99.90
20833;DHT22;56075;51.264;7.150;2023-11-19T13:35:52;13.10;99.90
20833;DHT22;56075;51.264;7.150;2023-11-19T13:38:24;13.10;99.90
20833;DHT22;56075;51.264;7.150;2023-11-19T13:40:55;13.20;99.90
20833;DHT22;56075;51.264;7.150;2023-11-19T13:43:26;13.10;99.90
20833;DHT22;56075;51.264;7.150;2023-11-19T13:45:59;13.80;99.90
20833;DHT22;56075;51.264;7.150;2023-11-19T13:48:30;13.10;99.90
20833;DHT22;56075;51.264;7.150;2023-11-19T13:51:01;13.20;99.90
20833;DHT22;56075;51.264;7.150;2023-11-19T13:53:32;13.10;99.90
20833;DHT22;56075;51.264;7.150;2023-11-19T13:56:04;13.10;99.90
20833;DHT22;56075;51.264;7.150;2023-11-19T13:58:35;13.10;99.90
20833;DHT22;56075;51.264;7.150;2023-11-19T14:01:08;13.10;99.90
20833;DHT22;56075;51.264;7.150;2023-11-19T14:03:39;13.10;99.90
20833;DHT22;56075;51.264;7.150;2023-11-19T14:06:11;13.00;99.90
20833;DHT22;56075;51.264;7.150;2023-11-19T14:08:43;15.50;99.90
20833;DHT22;56075;51.264;7.150;2023-11-19T14:11:14;13.00;99.90
20833;DHT22;56075;51.264;7.150;2023-11-19T14:13:45;12.90;99.90
20833;DHT22;56075;51.264;7.150;2023-11-19T14:16:17;13.00;99.90
20833;DHT22;56075;51.264;7.150;2023-11-19T14:18:49;12.80;99.90
20833;DHT22;56075;51.264;7.150;2023-11-19T14:21:21;12.90;99.90
20833;DHT22;56075;51.264;7.150;2023-11-19T14:23:52;13.10;99.90
20833;DHT22;56075;51.264;7.150;2023-11-19T14:26:24;13.00;99.90
20833;DHT22;56075;51.264;7.150;2023-11-19T14:28:55;12.80;99.90
20833;DHT22;56075;51.264;7.150;2023-11-19T14:31:28;12.60;99.90
20833;DHT22;56075;51.264;7.150;2023-11-19T14:34:00;12.40;99.90
20833;DHT22;56075;51.264;7.150;2023-11-19T14:36:31;12.00;99.90
20833;DHT22;56075;51.264;7.150;2023-11-19T14:41:35;12.00;99.90
20833;DHT22;56075;51.264;7.150;2023-11-19T14:44:06;11.80;99.90
20833;DHT22;56075;51.264;7.150;2023-11-19T14:46:38;11.70;99.90
20833;DHT22;56075;51.264;7.150;2023-11-19T14:49:09;11.60;99.90
20833;DHT22;56075;51.264;7.150;2023-11-19T14:51:40;11.60;99.90
20833;DHT22;56075;51.264;7.150;2023-11-19T14:54:12;11.30;99.90
20833;DHT22;56075;51.264;7.150;2023-11-19T14:56:45;11.30;99.90
20833;DHT22;56075;51.264;7.150;2023-11-19T14:59:16;11.10;99.90
20833;DHT22;56075;51.264;7.150;2023-11-19T15:01:48;11.10;99.90
20833;DHT22;56075;51.264;7.150;2023-11-19T15:04:20;10.80;99.90
20833;DHT22;56075;51.264;7.150;2023-11-19T15:06:51;10.90;99.90
20833;DHT22;56075;51.264;7.150;2023-11-19T15:09:22;10.70;99.90
20833;DHT22;56075;51.264;7.150;2023-11-19T15:11:54;10.70;99.90
20833;DHT22;56075;51.264;7.150;2023-11-19T15:14:25;10.70;99.90
20833;DHT22;56075;51.264;7.150;2023-11-19T15:16:56;10.80;99.90
20833;DHT22;56075;51.264;7.150;2023-11-19T15:19:29;10.80;99.90
20833;DHT22;56075;51.264;7.150;2023-11-19T15:22:00;10.70;99.90
20833;DHT22;56075;51.264;7.150;2023-11-19T15:24:35;10.70;99.90
20833;DHT22;56075;51.264;7.150;2023-11-19T15:27:10;10.70;99.90
20833;DHT22;56075;51.264;7.150;2023-11-19T15:29:42;10.90;99.90
20833;DHT22;56075;51.264;7.150;2023-11-19T15:32:14;10.70;99.90
20833;DHT22;56075;51.264;7.150;2023-11-19T15:37:17;10.80;99.90
20833;DHT22;56075;51.264;7.150;2023-11-19T15:39:48;10.80;99.90
20833;DHT22;56075;51.264;7.150;2023-11-19T15:42:22;10.60;99.90
20833;DHT22;56075;51.264;7.150;2023-11-19T15:44:53;10.80;99.90
20833;DHT22;56075;51.264;7.150;2023-11-19T15:49:56;10.60;99.90
20833;DHT22;56075;51.264;7.150;2023-11-19T15:52:28;10.70;99.90
20833;DHT22;56075;51.264;7.150;2023-11-19T15:55:01;10.60;99.90
20833;DHT22;56075;51.264;7.150;2023-11-19T15:57:32;10.70;99.90
20833;DHT22;56075;51.264;7.150;2023-11-19T16:00:04;10.80;99.90
20833;DHT22;56075;51.264;7.150;2023-11-19T16:02:35;10.90;99.90
20833;DHT22;56075;51.264;7.150;2023-11-19T16:05:07;10.70;99.90
20833;DHT22;56075;51.264;7.150;2023-11-19T16:07:39;10.80;99.90
20833;DHT22;56075;51.264;7.150;2023-11-19T16:10:11;10.80;99.90
20833;DHT22;56075;51.264;7.150;2023-11-19T16:12:43;10.90;99.90
20833;DHT22;56075;51.264;7.150;2023-11-19T16:15:15;10.80;99.90
20833;DHT22;56075;51.264;7.150;2023-11-19T16:17:46;10.80;99.90
20833;DHT22;56075;51.264;7.150;2023-11-19T16:20:17;10.70;99.90
20833;DHT22;56075;51.264;7.150;2023-11-19T16:22:48;10.90;99.90
20833;DHT22;56075;51.264;7.150;2023-11-19T16:25:21;10.80;99.90
20833;DHT22;56075;51.264;7.150;2023-11-19T16:27:53;10.90;99.90
20833;DHT22;56075;51.264;7.150;2023-11-19T16:30:24;11.00;99.90
20833;DHT22;56075;51.264;7.150;2023-11-19T16:32:58;11.10;99.90
20833;DHT22;56075;51.264;7.150;2023-11-19T16:35:30;10.80;99.90